Time;durP1;ratioP1;P1;durP2;ratioP2;P2;SDS_P1;SDS_P2;PMS_P1;PMS_P2;Temp;Humidity;BMP_temperature;BMP_pressure;BME280_temperature;BME280_humidity;BME280_pressure;Samples;Min_cycle;Max_cycle;Signal;HPM_P1;HPM_P2
2023/10/02 00:04:35;;;;;;;17.40;9.32;;;;;;;15.37;82.13;100949.25;10131883;29;20052;-77
2023/10/02 00:09:41;;;;;;;18.02;9.50;;;;;;;15.32;82.51;100955.03;10125701;29;20823;-77
2023/10/02 00:14:44;;;;;;;22.95;9.80;;;;;;;15.26;82.87;100955.59;10131714;29;21172;-77
2023/10/02 00:19:50;;;;;;;19.30;8.98;;;;;;;15.15;82.98;100958.44;10132557;29;20044;-77
2023/10/02 00:24:53;;;;;;;21.25;10.52;;;;;;;15.12;83.53;100966.84;10130800;29;20143;-77
2023/10/02 00:29:58;;;;;;;24.48;9.82;;;;;;;15.18;83.32;100960.88;10131996;29;20535;-77
2023/10/02 00:35:04;;;;;;;20.88;9.32;;;;;;;15.18;83.02;100967.13;10145227;29;20111;-77
2023/10/02 00:40:09;;;;;;;20.10;9.55;;;;;;;15.12;83.41;100964.16;10132621;29;20052;-77
2023/10/02 00:45:13;;;;;;;20.10;9.57;;;;;;;15.04;83.77;100952.16;10131645;29;20056;-77
2023/10/02 00:50:19;;;;;;;19.38;10.48;;;;;;;14.97;84.02;100964.53;10128813;29;20063;-77
2023/10/02 00:55:24;;;;;;;18.83;10.20;;;;;;;14.87;84.73;100966.38;10117751;29;20419;-77
2023/10/02 01:00:37;;;;;;;20.10;10.43;;;;;;;14.84;84.80;100955.84;10144107;29;20428;-77
2023/10/02 01:05:47;;;;;;;19.73;10.02;;;;;;;14.80;85.26;100947.13;10126388;29;20047;-77
2023/10/02 01:10:57;;;;;;;20.88;9.45;;;;;;;14.80;85.11;100947.13;10129732;29;20050;-77
2023/10/02 01:16:04;;;;;;;19.63;9.80;;;;;;;14.78;85.08;100959.94;10129102;29;20112;-77
2023/10/02 01:21:11;;;;;;;22.23;9.98;;;;;;;14.75;85.54;100949.38;10130469;29;20071;-77
2023/10/02 01:26:18;;;;;;;22.88;9.98;;;;;;;14.70;85.50;100948.97;10128954;29;20059;-77
2023/10/02 01:31:35;;;;;;;19.58;9.82;;;;;;;14.69;85.73;100935.56;10139050;29;20091;-77
2023/10/02 01:36:41;;;;;;;20.35;9.85;;;;;;;14.67;85.41;100932.97;10126096;29;21170;-77
2023/10/02 01:41:48;;;;;;;19.10;9.93;;;;;;;14.62;85.32;100937.09;10133322;29;20182;-77
2023/10/02 01:46:52;;;;;;;17.10;9.05;;;;;;;14.64;85.56;100949.47;10130513;29;20704;-77
2023/10/02 01:52:01;;;;;;;21.15;9.63;;;;;;;14.55;85.65;100940.34;10129691;29;20088;-77
2023/10/02 01:57:05;;;;;;;23.20;10.18;;;;;;;14.56;86.03;100939.38;10144806;29;20168;-77
2023/10/02 02:02:12;;;;;;;20.58;9.10;;;;;;;14.50;86.32;100939.06;10144510;29;20048;-77
2023/10/02 02:07:20;;;;;;;20.67;10.18;;;;;;;14.50;86.45;100930.94;10119596;29;20044;-77
2023/10/02 02:12:25;;;;;;;19.85;9.88;;;;;;;14.48;86.38;100936.50;10126230;29;20059;-77
2023/10/02 02:17:29;;;;;;;20.85;10.35;;;;;;;14.47;86.03;100931.22;10128493;29;20055;-77
2023/10/02 02:22:32;;;;;;;23.02;9.93;;;;;;;14.40;86.45;100928.22;10129044;29;20064;-77
2023/10/02 02:27:36;;;;;;;21.20;10.38;;;;;;;14.35;86.80;100938.53;10118867;29;20055;-77
2023/10/02 02:32:44;;;;;;;21.45;10.80;;;;;;;14.35;86.97;100933.13;10135032;29;20054;-77
2023/10/02 02:37:50;;;;;;;20.50;9.77;;;;;;;14.33;86.63;100925.16;10126953;29;20055;-77
2023/10/02 02:42:58;;;;;;;21.90;10.48;;;;;;;14.28;87.17;100927.41;10135907;29;20508;-77
2023/10/02 02:48:04;;;;;;;20.67;9.75;;;;;;;14.32;87.20;100922.59;10126499;29;20059;-77
2023/10/02 02:53:21;;;;;;;20.65;10.18;;;;;;;14.35;86.84;100920.47;10132609;29;20060;-77
2023/10/02 02:58:30;;;;;;;21.92;10.68;;;;;;;14.35;86.86;100915.06;10131828;29;20122;-77
2023/10/02 03:03:34;;;;;;;21.05;10.57;;;;;;;14.33;86.90;100925.16;10147503;29;20075;-77
2023/10/02 03:08:38;;;;;;;23.92;11.15;;;;;;;14.29;87.10;100922.84;10131985;29;20052;-76
2023/10/02 03:13:43;;;;;;;18.58;10.25;;;;;;;14.27;87.38;100923.00;10133543;29;20062;-77
2023/10/02 03:18:48;;;;;;;22.90;10.05;;;;;;;14.23;87.49;100923.41;10135617;29;21008;-76
2023/10/02 03:23:53;;;;;;;21.55;10.30;;;;;;;14.21;87.54;100922.69;10133856;29;20110;-76
2023/10/02 03:29:02;;;;;;;20.95;11.32;;;;;;;14.12;87.74;100914.41;10134755;29;20056;-77
2023/10/02 03:44:45;;;;;;;18.63;10.77;;;;;;;14.02;88.34;100901.84;10136339;29;20063;-77
2023/10/02 03:49:49;;;;;;;19.60;10.15;;;;;;;14.00;88.51;100906.53;10129786;29;20052;-77
2023/10/02 03:54:54;;;;;;;28.67;13.57;;;;;;;13.94;88.57;100903.34;10134568;29;20083;-77
2023/10/02 04:00:09;;;;;;;21.40;11.02;;;;;;;13.94;88.92;100892.56;10132618;29;21330;-76
2023/10/02 04:05:30;;;;;;;20.02;10.10;;;;;;;13.88;89.02;100893.09;10131510;29;20059;-76
2023/10/02 04:10:51;;;;;;;22.20;11.00;;;;;;;13.91;89.25;100891.97;10135077;29;20505;-76
2023/10/02 04:16:27;;;;;;;24.10;11.73;;;;;;;13.92;88.69;100886.44;10130996;29;20048;-78
2023/10/02 04:21:22;;;;;;;21.00;10.82;;;;;;;13.92;88.98;100888.28;10125945;29;20055;-77
2023/10/02 04:26:31;;;;;;;25.67;11.15;;;;;;;13.93;88.86;100884.56;10130044;29;20048;-77
2023/10/02 04:31:35;;;;;;;21.58;11.02;;;;;;;13.88;89.00;100885.00;10140923;29;20052;-77
2023/10/02 04:36:40;;;;;;;24.20;11.35;;;;;;;13.82;88.89;100888.25;10134136;29;21610;-77
2023/10/02 04:42:09;;;;;;;24.85;11.68;;;;;;;13.78;89.38;100888.63;10133560;29;20040;-76
2023/10/02 04:47:09;;;;;;;20.33;12.15;;;;;;;13.81;89.13;100886.50;10145809;29;20492;-77
2023/10/02 04:52:14;;;;;;;22.50;10.93;;;;;;;13.78;89.56;100886.78;10142259;29;20163;-78
2023/10/02 04:57:17;;;;;;;23.73;11.75;;;;;;;13.70;89.67;100882.03;10146583;29;20051;-77
2023/10/02 05:02:24;;;;;;;24.63;12.20;;;;;;;13.69;89.82;100883.03;10146827;29;20056;-78
2023/10/02 05:07:28;;;;;;;23.30;12.30;;;;;;;13.71;90.01;100888.28;10139656;29;20150;-77
2023/10/02 05:12:31;;;;;;;20.67;10.60;;;;;;;13.65;90.04;100883.41;10137099;29;20530;-77
2023/10/02 05:17:46;;;;;;;22.52;11.52;;;;;;;13.71;89.86;100877.47;10129593;29;20064;-77
2023/10/02 05:22:58;;;;;;;22.25;12.00;;;;;;;13.71;90.25;100880.19;10146292;29;20048;-78
2023/10/02 05:28:05;;;;;;;29.15;11.95;;;;;;;13.86;89.44;100888.81;10150602;29;20119;-78
2023/10/02 05:33:15;;;;;;;27.17;12.25;;;;;;;13.89;88.89;100883.16;10149983;29;20040;-76
2023/10/02 05:38:18;;;;;;;20.00;11.63;;;;;;;13.87;89.14;100885.97;10148824;29;20052;-78
2023/10/02 05:43:22;;;;;;;22.05;11.32;;;;;;;14.02;88.44;100891.03;10149950;29;20101;-78
2023/10/02 05:48:31;;;;;;;23.55;11.13;;;;;;;14.08;88.06;100893.19;10144108;29;20055;-78
2023/10/02 05:53:34;;;;;;;25.50;11.77;;;;;;;14.10;87.83;100893.94;10138052;29;20048;-78
2023/10/02 05:58:41;;;;;;;23.27;11.27;;;;;;;14.21;87.71;100911.91;10116949;29;20423;-78
2023/10/02 06:03:56;;;;;;;19.13;11.05;;;;;;;14.28;87.43;100915.75;10150636;29;20055;-77
2023/10/02 06:09:00;;;;;;;21.23;10.32;;;;;;;14.43;86.37;100902.78;10140925;29;20056;-79
2023/10/02 06:14:15;;;;;;;23.55;11.77;;;;;;;14.49;85.73;100907.63;10127458;29;21256;-77
2023/10/02 06:19:19;;;;;;;20.92;10.70;;;;;;;14.52;85.77;100907.34;10128587;29;20066;-77
2023/10/02 06:24:27;;;;;;;25.80;12.02;;;;;;;14.59;85.37;100917.47;10153446;29;20067;-78
2023/10/02 06:29:35;;;;;;;25.98;11.10;;;;;;;14.70;84.75;100923.75;10154605;28;20488;-78
2023/10/02 06:34:43;;;;;;;25.10;11.82;;;;;;;14.84;84.45;100923.38;10151339;29;20063;-78
2023/10/02 06:40:02;;;;;;;21.00;11.48;;;;;;;15.13;83.64;100920.69;10145225;29;20063;-78
2023/10/02 06:45:15;;;;;;;22.92;11.32;;;;;;;15.20;82.79;100919.16;10153289;29;20070;-79
2023/10/02 06:50:27;;;;;;;18.40;10.02;;;;;;;15.35;82.68;100922.31;10147414;29;20669;-80
2023/10/02 06:55:32;;;;;;;22.98;10.07;;;;;;;15.41;81.85;100913.63;10142017;29;20040;-78
2023/10/02 07:00:54;;;;;;;24.67;11.48;;;;;;;15.35;82.68;100910.63;10150734;29;21158;-78
2023/10/02 07:05:59;;;;;;;23.63;11.63;;;;;;;15.53;81.80;100925.16;10156734;28;20059;-78
2023/10/02 07:11:10;;;;;;;23.27;11.98;;;;;;;15.61;81.25;100921.75;10143263;29;21170;-78
2023/10/02 07:16:15;;;;;;;23.08;12.18;;;;;;;15.80;80.89;100912.72;10142536;29;20086;-77
2023/10/02 07:21:21;;;;;;;21.88;11.80;;;;;;;16.15;79.59;100909.31;10126046;29;173210;-78
2023/10/02 07:26:49;;;;;;;24.48;11.70;;;;;;;16.48;78.11;100912.50;10149275;29;20063;-78
2023/10/02 07:31:48;;;;;;;22.98;11.48;;;;;;;16.48;77.87;100926.94;10141637;29;20512;-78
2023/10/02 07:36:53;;;;;;;25.40;11.57;;;;;;;16.61;77.84;100915.72;10151604;29;20086;-80
2023/10/02 07:42:00;;;;;;;27.90;12.02;;;;;;;17.01;76.37;100923.50;10165663;29;20126;-78
2023/10/02 07:47:10;;;;;;;24.70;11.80;;;;;;;17.62;74.06;100919.16;10145999;29;20126;-78
2023/10/02 07:52:26;;;;;;;18.98;10.35;;;;;;;18.34;71.73;100921.69;10143413;29;20058;-78
2023/10/02 07:57:35;;;;;;;22.75;11.50;;;;;;;18.43;71.00;100906.25;10146018;28;20122;-79
2023/10/02 08:02:40;;;;;;;20.77;10.35;;;;;;;18.54;70.85;100906.84;10159148;28;20191;-79
2023/10/02 08:07:45;;;;;;;19.80;10.35;;;;;;;18.95;70.09;100908.84;10139311;29;20186;-78
2023/10/02 08:12:55;;;;;;;21.38;10.95;;;;;;;19.48;68.18;100904.84;10167603;29;20051;-78
2023/10/02 08:18:04;;;;;;;22.55;10.40;;;;;;;20.02;66.54;100897.00;10143488;29;20056;-77
2023/10/02 08:23:22;;;;;;;17.33;10.07;;;;;;;20.42;65.59;100902.50;10144455;29;20052;-78
2023/10/02 08:28:26;;;;;;;19.85;10.48;;;;;;;20.56;64.89;100897.16;10154820;28;20052;-78
2023/10/02 08:33:31;;;;;;;18.83;9.60;;;;;;;20.71;64.65;100902.72;10152268;29;20070;-78
2023/10/02 08:38:55;;;;;;;18.75;9.73;;;;;;;21.12;63.40;100896.22;10151211;29;20070;-78
2023/10/02 08:44:20;;;;;;;18.27;9.60;;;;;;;21.37;63.00;100892.25;10141029;29;20166;-78
2023/10/02 08:49:25;;;;;;;17.13;9.15;;;;;;;21.57;61.74;100889.00;10147529;29;20048;-80
2023/10/02 08:54:31;;;;;;;19.77;10.30;;;;;;;22.02;60.87;100887.22;10147549;29;20047;-81
2023/10/02 08:59:38;;;;;;;21.70;9.57;;;;;;;22.30;60.11;100893.75;10142982;29;20052;-78
2023/10/02 09:04:51;;;;;;;18.73;8.93;;;;;;;22.08;60.96;100881.84;10142361;29;20167;-80
2023/10/02 09:10:12;;;;;;;18.42;9.32;;;;;;;22.17;61.81;100860.72;10139456;29;20183;-82
2023/10/02 09:15:27;;;;;;;19.38;9.13;;;;;;;22.09;57.48;100869.03;10115402;29;20088;-80
2023/10/02 09:20:53;;;;;;;20.02;9.98;;;;;;;22.53;56.27;100858.06;10135071;29;20052;-79
2023/10/02 09:26:16;;;;;;;22.08;9.98;;;;;;;22.79;56.11;100859.44;10142330;29;21331;-81
2023/10/02 09:31:24;;;;;;;16.38;9.13;;;;;;;23.54;53.67;100855.34;10150760;29;20055;-81
2023/10/02 09:36:36;;;;;;;17.42;9.43;;;;;;;23.37;53.30;100848.44;10136906;29;20057;-79
2023/10/02 09:42:05;;;;;;;22.88;10.40;;;;;;;23.28;54.95;100847.72;10141895;29;20154;-79
2023/10/02 09:47:09;;;;;;;19.95;9.82;;;;;;;23.45;53.75;100837.34;10138324;29;20540;-77
2023/10/02 09:52:16;;;;;;;19.55;9.85;;;;;;;23.81;52.71;100834.47;10148207;29;20135;-80
2023/10/02 09:57:29;;;;;;;21.27;10.35;;;;;;;23.48;54.21;100831.47;10154428;29;20056;-78
2023/10/02 10:02:50;;;;;;;21.02;10.18;;;;;;;23.69;53.20;100822.31;10143153;29;20056;-79
2023/10/02 10:08:27;;;;;;;18.02;9.45;;;;;;;24.03;53.25;100821.53;10137661;29;20075;-82
2023/10/02 10:13:34;;;;;;;18.92;10.20;;;;;;;24.67;51.19;100830.47;10145591;29;20052;-79
2023/10/02 10:24:51;;;;;;;18.85;9.90;;;;;;;25.69;49.24;100804.56;10136509;29;20515;-79
2023/10/02 10:30:10;;;;;;;18.42;9.75;;;;;;;24.52;50.58;100814.16;10118714;29;20528;-81
2023/10/02 10:35:31;;;;;;;23.60;10.68;;;;;;;24.94;50.43;100801.16;10147446;29;20056;-79
2023/10/02 10:40:50;;;;;;;21.90;10.37;;;;;;;25.75;49.15;100798.22;10141394;29;20068;-78
2023/10/02 10:45:55;;;;;;;19.55;9.70;;;;;;;25.43;48.64;100801.84;10136894;29;20052;-77
2023/10/02 10:50:59;;;;;;;17.55;9.30;;;;;;;25.68;48.49;100797.41;10136005;29;20053;-79
2023/10/02 10:56:05;;;;;;;22.55;9.57;;;;;;;25.82;48.17;100801.81;10148519;29;20047;-82
2023/10/02 11:01:13;;;;;;;17.83;9.77;;;;;;;25.51;48.18;100813.47;10144420;29;20082;-82
2023/10/02 11:06:17;;;;;;;22.27;9.95;;;;;;;25.95;47.73;100803.69;10144930;29;20063;-82
2023/10/02 11:11:27;;;;;;;21.52;11.02;;;;;;;26.67;47.94;100787.91;10144574;29;20052;-79
2023/10/02 11:16:36;;;;;;;20.75;9.60;;;;;;;26.64;46.52;100788.38;10150887;29;20975;-80
2023/10/02 11:21:46;;;;;;;17.90;9.32;;;;;;;26.98;46.66;100799.19;10160468;29;20055;-81
2023/10/02 11:26:53;;;;;;;17.88;9.70;;;;;;;27.46;45.89;100784.84;10152558;29;20166;-79
2023/10/02 11:37:21;;;;;;;18.88;9.70;;;;;;;28.34;43.13;100773.44;10140991;29;20052;-79
2023/10/02 11:42:25;;;;;;;18.67;9.80;;;;;;;26.09;47.15;100760.44;10142351;29;20055;-80
2023/10/02 11:47:30;;;;;;;17.08;8.43;;;;;;;26.22;47.32;100768.66;10142683;29;20051;-79
2023/10/02 11:52:33;;;;;;;19.02;8.98;;;;;;;27.63;44.28;100757.50;10150426;29;20604;-79
2023/10/02 11:57:37;;;;;;;16.83;8.68;;;;;;;26.17;46.90;100746.44;10141748;29;20062;-80
2023/10/02 12:02:45;;;;;;;19.67;9.07;;;;;;;25.20;49.97;100753.63;10167732;29;20119;-79
2023/10/02 12:07:48;;;;;;;16.52;8.55;;;;;;;24.80;50.37;100753.59;10176550;29;20052;-81
2023/10/02 12:12:51;;;;;;;18.45;9.07;;;;;;;24.49;51.41;100756.91;10154218;29;20059;-79
2023/10/02 12:17:55;;;;;;;22.08;9.23;;;;;;;24.60;51.79;100748.06;10143328;29;20056;-82
2023/10/02 12:22:58;;;;;;;17.95;9.25;;;;;;;24.15;52.29;100753.19;10143312;29;20052;-82
2023/10/02 12:28:01;;;;;;;15.15;8.27;;;;;;;24.46;52.85;100746.31;10141277;29;20097;-80
2023/10/02 12:33:05;;;;;;;18.65;8.93;;;;;;;24.60;52.75;100742.59;10140617;29;20052;-82
2023/10/02 12:38:09;;;;;;;20.23;10.23;;;;;;;25.07;51.21;100739.91;10140653;29;20063;-80
2023/10/02 12:43:12;;;;;;;19.42;9.25;;;;;;;25.25;50.58;100742.84;10129171;29;20060;-82
2023/10/02 12:48:17;;;;;;;17.95;9.05;;;;;;;25.03;51.41;100744.97;10140011;29;20052;-80
2023/10/02 12:53:21;;;;;;;20.05;8.70;;;;;;;24.93;52.36;100734.38;10149280;29;21231;-80
2023/10/02 12:58:24;;;;;;;19.92;9.30;;;;;;;24.88;51.95;100736.91;10142986;29;21145;-80
2023/10/02 13:03:30;;;;;;;19.10;9.55;;;;;;;24.61;52.47;100727.78;10161293;29;20129;-79
2023/10/02 13:08:33;;;;;;;21.02;9.10;;;;;;;24.51;53.42;100716.34;10158474;29;20044;-79
2023/10/02 13:13:37;;;;;;;18.30;9.60;;;;;;;24.36;53.20;100713.78;10144153;29;20091;-82
2023/10/02 13:18:43;;;;;;;18.65;9.32;;;;;;;24.29;54.10;100707.41;10134590;29;20064;-79
2023/10/02 13:23:47;;;;;;;19.63;9.25;;;;;;;24.22;55.41;100701.06;10149051;29;20059;-80
2023/10/02 13:28:52;;;;;;;17.88;9.27;;;;;;;24.27;55.18;100693.03;10140180;29;20052;-79
2023/10/02 13:33:56;;;;;;;18.85;9.93;;;;;;;24.32;55.26;100687.78;10139133;29;20048;-80
2023/10/02 13:39:00;;;;;;;18.85;9.10;;;;;;;24.56;55.95;100686.38;10141099;29;20083;-81
2023/10/02 13:44:06;;;;;;;15.82;8.55;;;;;;;24.51;56.48;100684.25;10147589;29;20052;-79
2023/10/02 13:49:10;;;;;;;17.60;8.82;;;;;;;24.61;55.93;100672.03;10164923;29;20116;-79
2023/10/02 13:54:14;;;;;;;17.02;8.90;;;;;;;24.75;55.26;100673.72;10146718;29;20160;-77
2023/10/02 13:59:17;;;;;;;17.50;9.15;;;;;;;24.79;55.13;100653.00;10143363;29;20052;-79
2023/10/02 14:04:22;;;;;;;19.48;9.00;;;;;;;24.50;56.08;100651.53;10141177;29;20913;-77
2023/10/02 14:09:25;;;;;;;20.58;10.07;;;;;;;24.24;55.40;100652.28;10135426;29;21206;-79
2023/10/02 14:14:28;;;;;;;18.23;8.48;;;;;;;24.20;55.65;100646.38;10136006;29;20055;-79
2023/10/02 14:19:33;;;;;;;18.27;9.20;;;;;;;24.05;56.04;100645.69;10130504;29;20131;-80
2023/10/02 14:24:56;;;;;;;19.23;9.18;;;;;;;23.99;56.30;100632.81;10135186;29;20131;-79
2023/10/02 14:29:59;;;;;;;15.50;8.55;;;;;;;24.03;56.21;100634.94;10138017;29;20056;-77
2023/10/02 14:35:03;;;;;;;15.48;7.82;;;;;;;24.03;56.54;100637.69;10139173;29;20059;-78
2023/10/02 14:40:10;;;;;;;16.80;8.50;;;;;;;24.14;56.15;100649.13;10139072;29;20056;-84
2023/10/02 14:45:12;;;;;;;18.15;9.00;;;;;;;24.15;56.95;100639.81;10153255;29;20095;-81
2023/10/02 14:50:19;;;;;;;20.02;9.35;;;;;;;24.15;56.24;100632.44;10151977;29;20149;-77
2023/10/02 14:55:25;;;;;;;15.27;7.90;;;;;;;24.13;56.39;100626.28;10156720;29;20059;-79
2023/10/02 15:00:28;;;;;;;19.65;8.10;;;;;;;24.21;56.11;100617.88;10157978;29;20052;-78
2023/10/02 15:05:32;;;;;;;15.57;8.30;;;;;;;24.21;55.88;100606.88;10154187;29;20058;-81
2023/10/02 15:10:36;;;;;;;20.17;8.60;;;;;;;24.17;55.62;100599.31;10152372;29;20051;-79
2023/10/02 15:15:39;;;;;;;18.13;8.75;;;;;;;24.10;56.34;100600.13;10157761;29;20055;-81
2023/10/02 15:20:43;;;;;;;14.60;8.48;;;;;;;24.24;56.60;100594.66;10166553;29;20051;-80
2023/10/02 15:25:50;;;;;;;17.77;9.10;;;;;;;24.20;57.76;100583.25;10176573;28;20048;-78
2023/10/02 15:30:54;;;;;;;16.42;9.18;;;;;;;24.12;57.85;100577.97;10165152;28;20055;-80
2023/10/02 15:35:58;;;;;;;17.67;9.07;;;;;;;24.08;58.34;100576.72;10176272;28;20903;-79
2023/10/02 15:41:01;;;;;;;16.38;8.32;;;;;;;23.94;62.45;100570.31;10164093;28;20048;-79
2023/10/02 15:46:04;;;;;;;30.30;8.93;;;;;;;23.67;66.91;100577.63;10166634;29;20055;-79
2023/10/02 15:51:14;;;;;;;17.77;8.48;;;;;;;23.38;68.71;100576.88;10161482;28;20475;-81
2023/10/02 15:56:17;;;;;;;19.10;8.75;;;;;;;23.13;69.77;100571.06;10163816;28;20050;-80
2023/10/02 16:01:20;;;;;;;17.17;8.82;;;;;;;22.89;70.62;100572.38;10147835;29;20054;-81
2023/10/02 16:06:25;;;;;;;20.30;9.23;;;;;;;22.67;71.20;100566.13;10156734;29;20063;-81
2023/10/02 16:11:30;;;;;;;19.08;9.05;;;;;;;22.55;71.18;100563.09;10160170;28;20175;-80
2023/10/02 16:16:33;;;;;;;16.20;9.27;;;;;;;22.62;70.59;100560.38;10150334;29;20052;-78
2023/10/02 16:21:38;;;;;;;17.10;8.52;;;;;;;22.61;70.25;100561.44;10151895;28;20219;-78
2023/10/02 16:26:41;;;;;;;15.52;8.50;;;;;;;22.44;71.50;100560.06;10163055;28;20091;-80
2023/10/02 16:31:45;;;;;;;18.40;9.13;;;;;;;22.32;71.64;100551.50;10162802;28;21305;-79
2023/10/02 16:36:50;;;;;;;19.58;8.82;;;;;;;22.27;70.66;100543.03;10159067;28;20044;-79
2023/10/02 16:41:52;;;;;;;19.80;8.45;;;;;;;22.23;70.91;100550.78;10169260;28;20083;-79
2023/10/02 16:46:55;;;;;;;19.00;9.13;;;;;;;22.08;72.44;100534.47;10146697;29;20084;-78
2023/10/02 16:52:00;;;;;;;16.50;8.40;;;;;;;21.91;72.43;100526.72;10144983;29;20048;-81
2023/10/02 16:57:03;;;;;;;17.15;8.82;;;;;;;21.77;71.57;100525.72;10150773;29;20099;-82
2023/10/02 17:02:07;;;;;;;23.08;10.23;;;;;;;21.58;72.52;100527.16;10156455;29;20427;-81
2023/10/02 17:07:12;;;;;;;17.98;9.70;;;;;;;21.34;74.45;100521.03;10162970;28;20107;-80
2023/10/02 17:12:15;;;;;;;17.50;8.52;;;;;;;21.18;73.59;100522.09;10167434;28;20059;-81
2023/10/02 17:17:18;;;;;;;18.67;9.20;;;;;;;21.14;72.36;100525.38;10148229;29;20074;-79
2023/10/02 17:22:22;;;;;;;21.50;9.02;;;;;;;21.09;71.75;100520.50;10166064;29;20060;-80
2023/10/02 17:27:25;;;;;;;17.08;8.57;;;;;;;21.08;71.61;100518.81;10161151;29;20068;-79
2023/10/02 17:32:28;;;;;;;17.58;8.43;;;;;;;21.09;72.31;100522.38;10139519;29;20057;-78
2023/10/02 17:37:32;;;;;;;20.73;9.25;;;;;;;21.03;72.82;100518.50;10138621;29;20087;-79
2023/10/02 17:42:35;;;;;;;18.25;8.85;;;;;;;20.88;72.82;100510.31;10146203;28;20455;-77
2023/10/02 17:47:38;;;;;;;18.88;8.95;;;;;;;20.73;73.26;100509.47;10136823;29;20059;-79
2023/10/02 17:52:42;;;;;;;20.25;8.88;;;;;;;20.61;73.81;100502.78;10137616;29;20251;-77
2023/10/02 17:57:47;;;;;;;15.43;8.38;;;;;;;20.48;73.96;100487.91;10142281;29;21150;-78
2023/10/02 18:02:50;;;;;;;18.73;7.72;;;;;;;20.40;74.37;100482.53;10144730;29;20299;-81
2023/10/02 18:07:55;;;;;;;17.60;9.27;;;;;;;20.32;74.79;100479.88;10140540;29;20071;-79
2023/10/02 18:12:57;;;;;;;24.85;11.27;;;;;;;20.27;75.75;100465.97;10138979;29;20052;-80
2023/10/02 18:18:01;;;;;;;20.08;10.68;;;;;;;20.22;76.56;100462.94;10145546;29;20401;-80
2023/10/02 18:23:05;;;;;;;17.25;9.07;;;;;;;20.16;78.12;100467.25;10151937;28;20052;-79
2023/10/02 18:28:08;;;;;;;23.63;10.90;;;;;;;20.08;77.98;100456.44;10158783;28;20056;-79
2023/10/02 18:33:12;;;;;;;29.80;12.43;;;;;;;20.02;79.11;100447.09;10156003;28;20512;-79
2023/10/02 18:38:16;;;;;;;24.15;11.45;;;;;;;19.96;79.66;100453.28;10148494;29;20064;-79
2023/10/02 18:43:19;;;;;;;22.95;11.77;;;;;;;19.92;80.50;100462.88;10157032;28;20515;-79
2023/10/02 18:48:23;;;;;;;16.17;9.18;;;;;;;19.85;81.10;100464.63;10157955;28;21701;-80
2023/10/02 18:53:27;;;;;;;18.48;9.65;;;;;;;19.82;81.66;100463.09;10159607;28;20140;-78
2023/10/02 18:58:31;;;;;;;20.60;9.43;;;;;;;19.75;81.86;100467.59;10156775;28;20067;-80
2023/10/02 19:03:33;;;;;;;17.35;9.05;;;;;;;19.68;81.97;100453.84;10161971;28;20419;-80
2023/10/02 19:08:38;;;;;;;18.75;9.98;;;;;;;19.62;82.50;100464.63;10159327;28;20055;-79
2023/10/02 19:13:41;;;;;;;20.10;9.82;;;;;;;19.53;82.73;100466.56;10164515;28;20051;-81
2023/10/02 19:18:44;;;;;;;20.63;9.38;;;;;;;19.48;82.60;100458.06;10159300;28;20089;-78
2023/10/02 19:23:53;;;;;;;19.90;9.35;;;;;;;19.36;83.28;100459.50;10179144;28;20055;-79
2023/10/02 19:28:56;;;;;;;17.40;8.98;;;;;;;19.24;83.64;100451.75;10169926;29;20174;-81
2023/10/02 19:33:59;;;;;;;22.70;9.43;;;;;;;19.16;83.93;100464.56;10161595;28;21218;-79
2023/10/02 19:39:05;;;;;;;20.60;8.82;;;;;;;19.13;83.86;100468.50;10156535;28;20064;-79
2023/10/02 19:44:08;;;;;;;17.25;9.18;;;;;;;19.07;83.89;100460.19;10162461;28;20504;-81
2023/10/02 19:49:11;;;;;;;19.92;8.68;;;;;;;19.05;83.20;100457.63;10178987;28;20056;-79
2023/10/02 19:54:15;;;;;;;18.55;9.18;;;;;;;19.02;82.91;100463.44;10168967;29;20102;-79
2023/10/02 19:59:18;;;;;;;18.83;10.15;;;;;;;19.01;83.03;100451.72;10167567;28;20055;-80
2023/10/02 20:04:23;;;;;;;21.48;11.70;;;;;;;18.97;83.09;100446.78;10167024;29;21151;-80
2023/10/02 20:09:28;;;;;;;20.92;11.60;;;;;;;18.93;83.23;100442.75;10164750;28;20183;-80
2023/10/02 20:14:30;;;;;;;19.20;10.82;;;;;;;18.90;83.41;100437.66;10154793;28;21708;-81
2023/10/02 20:19:33;;;;;;;17.40;10.35;;;;;;;18.80;83.37;100438.69;10164257;28;20059;-79
2023/10/02 20:24:38;;;;;;;18.63;10.25;;;;;;;18.71;84.17;100444.34;10166371;29;20506;-79
2023/10/02 20:29:42;;;;;;;15.52;9.80;;;;;;;18.60;85.34;100434.69;10151903;29;21179;-79
2023/10/02 20:34:45;;;;;;;20.75;10.23;;;;;;;18.59;86.00;100443.84;10148938;29;20051;-79
2023/10/02 20:39:49;;;;;;;18.33;10.20;;;;;;;18.56;85.97;100436.03;10160899;29;21636;-78
2023/10/02 20:44:52;;;;;;;18.50;10.98;;;;;;;18.48;86.08;100438.78;10130061;29;20051;-79
2023/10/02 20:49:55;;;;;;;20.38;11.38;;;;;;;18.42;86.36;100432.19;10138471;29;20531;-78
2023/10/02 20:55:00;;;;;;;18.17;10.63;;;;;;;18.38;86.59;100424.56;10141308;29;20052;-79
2023/10/02 21:00:06;;;;;;;20.15;10.77;;;;;;;18.30;86.75;100418.13;10150833;29;21495;-77
2023/10/02 21:05:11;;;;;;;18.17;10.65;;;;;;;18.27;86.49;100418.47;10142877;29;20056;-78
2023/10/02 21:10:16;;;;;;;18.92;10.10;;;;;;;18.21;86.37;100402.88;10137803;29;20055;-77
2023/10/02 21:15:20;;;;;;;18.88;9.82;;;;;;;18.14;85.88;100404.56;10153359;29;20143;-80
2023/10/02 21:20:23;;;;;;;17.58;9.82;;;;;;;18.07;85.97;100387.25;10148157;29;20044;-78
2023/10/02 21:25:27;;;;;;;16.95;8.98;;;;;;;17.93;86.03;100373.31;10139545;29;20052;-78
2023/10/02 21:30:30;;;;;;;22.08;10.68;;;;;;;17.92;86.15;100378.94;10141908;29;20056;-79
2023/10/02 21:35:37;;;;;;;20.58;11.82;;;;;;;17.86;85.59;100372.31;10133278;29;20045;-78
2023/10/02 21:40:41;;;;;;;20.92;10.52;;;;;;;17.79;85.64;100362.31;10143204;29;20060;-78
2023/10/02 21:45:44;;;;;;;21.00;11.32;;;;;;;17.67;85.65;100362.66;10151670;29;20135;-78
2023/10/02 21:50:47;;;;;;;25.33;11.73;;;;;;;17.67;85.36;100361.81;10147383;29;20056;-79
2023/10/02 21:55:53;;;;;;;25.23;11.18;;;;;;;17.61;85.18;100352.50;10148380;29;20051;-78
2023/10/02 22:01:01;;;;;;;30.42;12.18;;;;;;;17.56;85.11;100357.56;10144523;29;20061;-78
2023/10/02 22:06:06;;;;;;;22.25;11.35;;;;;;;17.48;84.96;100355.72;10140033;29;20222;-77
2023/10/02 22:11:10;;;;;;;21.75;11.57;;;;;;;17.39;85.26;100339.59;10144119;29;20055;-78
2023/10/02 22:16:13;;;;;;;21.92;11.23;;;;;;;17.36;84.92;100340.78;10146163;29;20044;-78
2023/10/02 22:21:20;;;;;;;24.10;11.38;;;;;;;17.28;84.74;100324.50;10149469;29;20064;-78
2023/10/02 22:26:24;;;;;;;21.67;12.38;;;;;;;17.23;84.68;100329.59;10146387;29;21384;-79
2023/10/02 22:31:28;;;;;;;24.73;12.80;;;;;;;17.20;84.56;100328.06;10137693;29;20139;-77
2023/10/02 22:36:31;;;;;;;24.50;12.13;;;;;;;17.19;84.30;100315.47;10140870;29;20460;-79
2023/10/02 22:41:35;;;;;;;21.90;12.00;;;;;;;17.18;83.95;100304.81;10141080;29;20161;-79
2023/10/02 22:46:38;;;;;;;24.50;12.00;;;;;;;17.04;84.34;100301.72;10146441;29;20044;-79
2023/10/02 22:51:41;;;;;;;23.83;12.65;;;;;;;17.04;84.24;100298.16;10151240;29;20055;-78
2023/10/02 22:56:46;;;;;;;21.70;11.77;;;;;;;16.98;84.37;100282.56;10141990;29;20052;-78
2023/10/02 23:01:49;;;;;;;24.63;12.40;;;;;;;16.87;84.59;100263.91;10161350;29;20843;-79
2023/10/02 23:06:54;;;;;;;25.02;11.75;;;;;;;16.91;84.15;100262.53;10162895;29;20055;-79
2023/10/02 23:11:58;;;;;;;24.13;11.95;;;;;;;16.74;84.79;100254.38;10157603;29;20055;-79
2023/10/02 23:17:01;;;;;;;23.70;11.32;;;;;;;16.77;84.77;100234.22;10153176;29;20054;-78
2023/10/02 23:22:05;;;;;;;25.38;13.65;;;;;;;16.71;84.96;100235.75;10146778;29;20063;-78
2023/10/02 23:27:09;;;;;;;23.05;12.18;;;;;;;16.68;85.05;100227.09;10145129;29;21221;-77